Latest Weather Observations for Warrnambool

IDV60801

Issued at 10:42 pm EDT Friday 6 December 2019 (issued every 10 minutes, with the page automatically refreshed every 10 minutes)

About weather observations | Map of weather stations | Latest weather observations for VIC | Other Formats
Station Details ID: 090186 Name: WARRNAMBOOL AIRPORT NDB Lat: -38.29 Lon: 142.45 Height: 70.8 m
Data from the previous 72 hours. | See also: Recent months at Warrnambool
Date/Time
EDT
Temp
°C
App
Temp
°C
Dew
Point
°C
Rel
Hum
%
Delta-T
°C
Wind Press
QNH
hPa
Press
MSL
hPa
Rain since
9am
mm
Dir  Spd
km/h
Gust
km/h
Spd
kts
Gust
kts
06/10:30pm 11.1 7.8 8.1 82 1.5 WSW 15 20 8 11 1016.7 1016.6 0.0
06/10:00pm 11.6 7.9 8.1 79 1.7 W 17 20 9 11 1016.6 1016.5 0.0
06/09:30pm 11.5 7.1 7.2 75 2.1 WSW 20 26 11 14 1016.6 1016.5 0.0
06/09:00pm 11.5 7.1 6.6 72 2.3 W 19 24 10 13 1016.3 1016.2 0.0
06/08:30pm 11.5 6.2 6.8 73 2.2 WSW 24 33 13 18 1016.1 1016.0 0.0
06/08:00pm 12.4 6.6 7.9 74 2.2 WSW 28 35 15 19 1016.0 1015.9 0.0
06/07:30pm 12.8 6.9 7.5 70 2.6 WSW 28 37 15 20 1015.4 1015.3 0.0
06/07:00pm 12.8 6.0 6.8 67 2.9 WSW 32 41 17 22 1015.2 1015.1 0.0
06/06:30pm 13.5 7.2 8.8 73 2.4 WSW 32 43 17 23 1014.9 1014.8 0.0
06/06:00pm 13.8 7.7 8.4 70 2.7 WSW 30 43 16 23 1014.4 1014.3 0.0
06/05:30pm 14.8 8.2 8.7 67 3.1 WSW 33 48 18 26 1014.3 1014.1 0.0
06/05:00pm 14.1 7.9 9.5 74 2.4 WSW 32 41 17 22 1014.2 1014.0 0.0
06/04:30pm 14.2 7.8 10.8 80 1.8 WSW 35 46 19 25 1014.4 1014.3 0.0
06/04:00pm 14.7 8.8 10.3 75 2.3 SW 32 41 17 22 1014.1 1013.9 0.0
06/03:30pm 14.4 7.2 9.0 70 2.8 WSW 37 48 20 26 1014.0 1013.8 0.0
06/03:00pm 14.9 8.2 9.5 70 2.8 WSW 35 48 19 26 1013.9 1013.7 0.0
06/02:30pm 14.9 8.8 10.3 74 2.4 WSW 33 52 18 28 1013.7 1013.5 0.0
06/02:00pm 15.3 8.7 10.1 71 2.7 WSW 35 44 19 24 1013.6 1013.4 0.0
06/01:30pm 15.1 9.0 10.5 74 2.4 WSW 33 46 18 25 1013.5 1013.3 0.0
06/01:00pm 14.5 7.3 9.1 70 2.8 WSW 37 48 20 26 1013.7 1013.5 0.0
06/12:30pm 14.4 7.3 9.4 72 2.6 WSW 37 52 20 28 1013.4 1013.2 0.0
06/12:21pm 13.5 8.3 10.1 80 1.8 WSW 28 50 15 27 1013.4 1013.2 0.0
06/12:00pm 13.3 7.2 10.5 83 1.5 W 33 44 18 24 1013.3 1013.1 0.0
06/11:30am 14.0 7.9 9.6 75 2.3 W 32 44 17 24 1013.0 1012.8 0.0
06/11:00am 13.5 6.9 9.9 79 1.9 WSW 35 44 19 24 1012.9 1012.7 0.0
06/10:30am 13.6 7.3 9.8 78 2.0 W 33 46 18 25 1012.6 1012.5 0.0
06/10:00am 13.6 8.2 10.8 83 1.5 WSW 30 39 16 21 1012.5 1012.4 0.0
06/09:30am 13.1 8.9 11.2 88 1.0 W 24 32 13 17 1012.1 1012.0 0.0
06/09:03am 11.8 7.1 10.7 93 0.6 W 26 39 14 21 1013.2 1013.0 0.0
06/09:00am 12.0 8.2 11.2 95 0.4 W 22 33 12 18 1013.1 1012.9 0.8
06/08:50am 12.0 8.6 11.4 96 0.3 W 20 28 11 15 1012.4 1012.3 0.8
06/08:30am 11.8 7.6 11.2 96 0.3 W 24 32 13 17 1011.8 1011.7 0.8
06/08:00am 11.4 7.1 10.8 96 0.3 W 24 39 13 21 1011.6 1011.5 0.8
06/07:30am 11.0 7.6 10.7 98 0.2 W 19 33 10 18 1011.7 1011.6 0.8
06/07:11am 10.9 8.3 10.6 98 0.2 WNW 15 19 8 10 1011.4 1011.3 0.8
06/07:00am 10.9 7.5 10.6 98 0.2 W 19 24 10 13 1011.4 1011.3 0.6
06/06:46am 10.7 7.6 10.2 97 0.3 WNW 17 20 9 11 1011.3 1011.2 0.6
06/06:39am 10.7 7.2 10.1 96 0.3 WNW 19 26 10 14 1011.1 1011.0 0.6
06/06:30am 10.7 7.5 9.9 95 0.4 WNW 17 24 9 13 1011.1 1011.0 0.6
06/06:21am 11.0 8.6 10.1 94 0.5 WNW 13 19 7 10 1010.9 1010.8 0.6
06/06:00am 10.9 8.0 9.7 92 0.6 WNW 15 19 8 10 1010.8 1010.7 0.6
06/05:30am 10.8 7.4 9.2 90 0.8 WNW 17 20 9 11 1010.6 1010.5 0.6
06/05:00am 10.8 7.3 8.7 87 1.0 WNW 17 26 9 14 1010.7 1010.6 0.6
06/04:30am 11.0 7.5 8.6 85 1.2 WNW 17 24 9 13 1010.4 1010.3 0.6
06/04:00am 10.9 7.8 8.8 87 1.0 WNW 15 24 8 13 1010.4 1010.3 0.6
06/03:30am 10.9 8.5 8.8 87 1.0 WNW 11 15 6 8 1010.3 1010.2 0.6
06/03:00am 11.1 7.5 8.3 83 1.4 WNW 17 24 9 13 1010.7 1010.6 0.6
06/02:30am 11.4 7.2 8.1 80 1.6 W 20 26 11 14 1010.8 1010.7 0.6
06/02:00am 11.4 6.3 7.5 77 1.9 W 24 33 13 18 1011.1 1011.0 0.6
06/01:30am 11.4 7.4 8.1 80 1.6 W 19 22 10 12 1011.2 1011.1 0.6
06/01:00am 11.3 7.1 8.3 82 1.5 W 20 28 11 15 1011.4 1011.3 0.6
06/12:30am 11.4 7.8 8.4 82 1.5 W 17 22 9 12 1011.3 1011.2 0.6
06/12:00am 11.5 8.2 8.2 80 1.6 WNW 15 20 8 11 1011.5 1011.4 0.6
 
Date/Time
EDT
Temp
°C
App
Temp
°C
Dew
Point
°C
Rel
Hum
%
Delta-T
°C
Wind Press
QNH
hPa
Press
MSL
hPa
Rain since
9am
mm
Dir  Spd
km/h
Gust
km/h
Spd
kts
Gust
kts
05/11:30pm 11.6 7.3 7.7 77 1.9 W 20 26 11 14 1011.4 1011.3 0.6
05/11:00pm 11.9 7.3 8.2 78 1.8 W 22 35 12 19 1011.4 1011.3 0.6
05/10:30pm 11.8 8.6 8.6 81 1.6 W 15 20 8 11 1011.4 1011.3 0.6
05/10:00pm 12.2 6.5 8.5 78 1.8 WSW 28 37 15 20 1011.4 1011.3 0.6
05/09:41pm 11.8 8.3 10.9 94 0.5 W 20 30 11 16 1011.2 1011.1 0.6
05/09:30pm 12.1 8.8 11.5 96 0.3 W 20 28 11 15 1011.2 1011.1 0.6
05/09:05pm 12.3 9.6 11.7 96 0.3 W 17 26 9 14 1011.1 1011.0 0.6
05/09:00pm 12.3 9.2 11.7 96 0.3 W 19 24 10 13 1011.1 1011.0 0.6
05/08:30pm 12.0 8.3 11.4 96 0.3 W 22 32 12 17 1010.9 1010.8 0.6
05/08:29pm 12.1 8.4 11.5 96 0.3 W 22 32 12 17 1010.9 1010.8 0.6
05/08:00pm 12.5 7.8 11.9 96 0.3 W 28 41 15 22 1010.7 1010.6 0.4
05/07:30pm 12.9 7.9 12.1 95 0.4 W 30 39 16 21 1010.4 1010.3 0.4
05/07:18pm 13.0 7.3 11.7 92 0.7 W 33 46 18 25 1010.3 1010.2 0.4
05/07:14pm 13.2 7.7 11.9 92 0.7 WSW 32 44 17 24 1010.3 1010.2 0.4
05/07:04pm 13.7 8.2 11.8 88 1.0 W 32 41 17 22 1010.0 1009.9 0.4
05/07:00pm 13.9 8.4 11.9 88 1.1 W 32 41 17 22 1009.9 1009.8 0.4
05/06:30pm 14.8 8.7 11.6 81 1.7 W 35 48 19 26 1009.7 1009.6 0.4
05/06:00pm 15.0 9.9 11.8 81 1.7 W 30 43 16 23 1009.5 1009.4 0.4
05/05:30pm 15.2 9.4 11.6 79 1.9 W 33 43 18 23 1009.4 1009.3 0.4
05/05:03pm 14.9 8.7 11.3 79 1.9 W 35 54 19 29 1009.7 1009.6 0.4
05/05:00pm 15.0 9.4 11.4 79 1.9 W 32 43 17 23 1009.6 1009.5 0.4
05/04:34pm 15.1 9.1 12.2 83 1.6 W 35 48 19 26 1009.7 1009.6 0.4
05/04:30pm 15.1 9.1 12.2 83 1.6 W 35 48 19 26 1009.7 1009.6 0.4
05/04:15pm 14.6 8.1 13.0 90 0.9 WSW 39 50 21 27 1009.8 1009.7 0.4
05/04:13pm 14.4 8.2 12.8 90 0.9 WSW 37 50 20 27 1009.8 1009.7 0.4
05/04:00pm 14.5 8.8 13.0 91 0.8 WSW 35 48 19 26 1009.8 1009.7 0.4
05/03:58pm 14.7 9.0 13.1 90 0.9 WSW 35 50 19 27 1009.8 1009.7 0.4
05/03:30pm 15.3 8.6 12.4 83 1.6 WSW 39 50 21 27 1009.6 1009.5 0.4
05/03:01pm 16.7 10.2 11.6 72 2.8 W 37 59 20 32 1009.2 1009.1 0.4
05/03:00pm 16.8 10.4 11.9 73 2.7 W 37 52 20 28 1009.3 1009.2 0.4
05/02:33pm 16.9 10.2 12.2 74 2.6 W 39 57 21 31 1009.1 1009.0 0.4
05/02:30pm 17.1 10.0 12.2 73 2.7 W 41 54 22 29 1009.0 1008.9 0.4
05/02:00pm 15.7 9.1 12.6 82 1.7 WSW 39 56 21 30 1009.0 1008.9 0.4
05/01:57pm 15.7 9.3 11.9 78 2.1 WSW 37 56 20 30 1009.0 1008.9 0.4
05/01:30pm 16.0 10.4 12.0 77 2.2 W 33 44 18 24 1009.2 1009.1 0.4
05/01:00pm 16.4 10.2 12.6 78 2.1 W 37 46 20 25 1009.1 1009.0 0.4
05/12:30pm 16.4 9.7 12.2 76 2.3 W 39 54 21 29 1009.1 1009.0 0.2
05/12:11pm 15.4 8.8 12.5 83 1.6 W 39 52 21 28 1009.2 1009.1 0.2
05/12:00pm 15.3 9.0 13.5 89 1.0 W 39 50 21 27 1009.2 1009.1 0.2
05/11:44am 14.3 8.1 13.7 96 0.3 W 39 59 21 32 1009.2 1009.1 0.2
05/11:30am 13.6 7.9 13.1 97 0.3 W 35 48 19 26 1009.2 1009.1 0.2
05/11:11am 13.9 9.3 13.6 98 0.2 W 30 44 16 24 1009.0 1008.9 0.2
05/11:00am 13.7 9.8 13.4 98 0.2 WNW 26 35 14 19 1009.0 1008.9 0.2
05/10:51am 13.6 10.1 13.3 98 0.2 WNW 24 37 13 20 1009.0 1008.9 0.2
05/10:49am 13.5 9.9 13.2 98 0.2 WNW 24 37 13 20 1009.0 1008.9 0.2
05/10:30am 13.4 9.8 13.1 98 0.2 WNW 24 39 13 21 1008.9 1008.8 0.0
05/10:00am 13.0 10.0 12.7 98 0.2 WNW 20 30 11 16 1009.1 1009.0 0.0
05/09:30am 12.7 9.3 12.4 98 0.2 NW 22 32 12 17 1009.1 1009.0 0.0
05/09:26am 12.6 9.1 12.3 98 0.2 NW 22 33 12 18 1009.0 1008.9 0.0
05/09:17am 12.3 8.0 12.0 98 0.2 NW 26 37 14 20 1009.0 1008.9 0.0
05/09:00am 12.3 9.1 12.0 98 0.2 WNW 20 32 11 17 1009.0 1008.9 0.0
05/08:30am 12.1 8.6 11.0 93 0.6 WNW 20 32 11 17 1008.9 1008.8 0.0
05/08:23am 12.1 8.2 10.7 91 0.7 WNW 22 32 12 17 1008.8 1008.7 0.0
05/08:00am 12.2 8.2 10.3 88 1.0 WNW 22 35 12 19 1008.6 1008.5 0.0
05/07:39am 12.3 7.8 10.2 87 1.1 NW 24 35 13 19 1008.3 1008.2 0.0
05/07:30am 12.3 8.2 10.2 87 1.1 NW 22 33 12 18 1008.3 1008.2 0.0
05/07:00am 12.2 8.0 9.8 85 1.2 WNW 22 32 12 17 1008.2 1008.1 0.0
05/06:30am 12.1 8.2 9.5 84 1.3 WNW 20 35 11 19 1008.2 1008.1 0.0
05/06:00am 12.2 8.4 9.2 82 1.5 WNW 19 28 10 15 1008.0 1007.9 0.0
05/05:30am 12.1 8.7 9.1 82 1.5 WNW 17 28 9 15 1008.0 1007.9 0.0
05/05:00am 12.1 8.6 8.8 80 1.7 WNW 17 28 9 15 1007.7 1007.6 0.0
05/04:30am 12.1 8.6 8.6 79 1.7 WNW 17 26 9 14 1007.9 1007.8 0.0
05/04:00am 12.2 8.1 8.5 78 1.8 WNW 20 33 11 18 1008.3 1008.2 0.0
05/03:30am 12.2 8.0 8.3 77 1.9 WNW 20 32 11 17 1008.3 1008.2 0.0
05/03:00am 12.1 7.9 8.4 78 1.8 WNW 20 37 11 20 1008.7 1008.6 0.0
05/02:30am 12.0 8.4 8.5 79 1.7 NW 17 24 9 13 1008.8 1008.7 0.0
05/02:00am 12.2 8.2 8.3 77 1.9 WNW 19 32 10 17 1009.2 1009.1 0.0
05/01:30am 12.4 7.4 8.1 75 2.1 WNW 24 37 13 20 1009.5 1009.4 0.0
05/01:00am 12.4 8.3 8.5 77 1.9 NW 20 28 11 15 1009.9 1009.8 0.0
05/12:30am 12.4 8.3 8.7 78 1.9 WNW 20 30 11 16 1010.1 1010.0 0.0
05/12:00am 12.8 8.4 8.9 77 2.0 WNW 22 33 12 18 1010.6 1010.5 0.0
 
Date/Time
EDT
Temp
°C
App
Temp
°C
Dew
Point
°C
Rel
Hum
%
Delta-T
°C
Wind Press
QNH
hPa
Press
MSL
hPa
Rain since
9am
mm
Dir  Spd
km/h
Gust
km/h
Spd
kts
Gust
kts
04/11:30pm 12.7 8.8 8.6 76 2.1 WNW 19 28 10 15 1010.9 1010.8 0.0
04/11:00pm 12.7 8.7 9.0 78 1.9 WNW 20 32 11 17 1011.2 1011.1 0.0
04/10:30pm 13.0 9.3 10.0 82 1.5 WNW 20 32 11 17 1011.5 1011.4 0.0
04/10:00pm 13.1 8.6 9.9 81 1.7 WNW 24 35 13 19 1011.5 1011.4 0.0
04/09:30pm 13.0 8.4 9.8 81 1.6 W 24 30 13 16 1011.5 1011.4 0.0
04/09:00pm 13.1 6.7 9.5 79 1.8 W 33 41 18 22 1011.4 1011.3 0.0
04/08:30pm 13.0 7.4 8.9 76 2.1 W 28 37 15 20 1011.6 1011.5 0.0
04/08:09pm 13.3 7.5 9.5 78 1.9 W 30 48 16 26 1011.7 1011.6 0.0
04/08:00pm 13.4 8.1 9.8 79 1.9 W 28 43 15 23 1011.6 1011.5 0.0
04/07:30pm 14.1 7.5 9.9 76 2.2 W 35 50 19 27 1011.4 1011.3 0.0
04/07:00pm 15.1 8.1 10.1 72 2.6 W 37 54 20 29 1011.3 1011.2 0.0
04/06:49pm 15.5 8.5 9.8 69 3.0 W 37 56 20 30 1011.2 1011.1 0.0
04/06:30pm 15.4 8.1 10.2 71 2.7 W 39 52 21 28 1011.1 1011.0 0.0
04/06:00pm 16.2 8.5 10.3 68 3.1 W 41 54 22 29 1011.0 1010.9 0.0
04/05:30pm 16.6 9.6 11.3 71 2.9 W 39 50 21 27 1011.0 1010.9 0.0
04/05:00pm 16.4 9.3 10.9 70 3.0 W 39 50 21 27 1010.9 1010.8 0.0
04/04:30pm 16.8 10.0 11.9 73 2.7 WSW 39 52 21 28 1010.9 1010.8 0.0
04/04:00pm 17.3 11.3 12.0 71 2.9 W 35 44 19 24 1011.1 1011.0 0.0
04/03:30pm 16.7 10.6 11.8 73 2.7 WSW 35 50 19 27 1011.4 1011.3 0.0
04/03:23pm 16.4 10.8 11.6 73 2.6 WSW 32 50 17 27 1011.4 1011.3 0.0
04/03:00pm 16.7 10.6 11.6 72 2.8 W 35 46 19 25 1011.6 1011.5 0.0
04/02:30pm 16.6 10.9 11.3 71 2.9 W 32 44 17 24 1011.7 1011.6 0.0
04/02:00pm 16.1 10.6 11.7 75 2.4 WSW 32 43 17 23 1011.8 1011.7 0.0
04/01:30pm 16.4 11.1 12.6 78 2.1 W 32 50 17 27 1011.9 1011.8 0.0
04/01:00pm 15.8 10.2 12.2 79 2.0 W 33 43 18 23 1012.0 1011.9 0.0
04/12:30pm 14.2 8.6 12.1 87 1.1 W 33 44 18 24 1012.2 1012.1 0.0
04/12:00pm 15.4 9.7 11.2 76 2.3 W 32 41 17 22 1012.1 1012.0 0.0
04/11:30am 14.2 8.8 9.4 73 2.5 W 28 39 15 21 1012.3 1012.2 0.0
04/11:00am 14.6 7.4 9.2 70 2.8 W 37 52 20 28 1012.2 1012.1 0.0
04/10:34am 14.6 8.7 9.0 69 2.9 W 30 50 16 27 1012.3 1012.2 0.0
04/10:30am 15.1 9.1 10.1 72 2.6 W 32 48 17 26 1012.3 1012.2 0.0
04/10:00am 13.6 7.1 9.1 74 2.3 W 33 46 18 25 1012.3 1012.2 0.0
04/09:34am 13.2 6.9 9.1 76 2.1 W 32 52 17 28 1012.2 1012.1 0.0
04/09:30am 14.4 8.9 10.4 77 2.1 W 30 39 16 21 1012.1 1012.0 0.0
04/09:00am 12.3 7.6 10.5 89 0.9 WNW 26 35 14 19 1012.1 1012.0 3.4
04/08:30am 11.8 8.3 11.0 95 0.4 WNW 20 32 11 17 1012.0 1011.9 3.4
04/08:00am 11.3 8.0 10.8 97 0.3 WNW 19 32 10 17 1011.7 1011.6 3.4
04/07:39am 10.5 7.0 10.2 98 0.2 WNW 19 30 10 16 1011.7 1011.6 3.4
04/07:30am 10.5 7.0 10.2 98 0.2 WNW 19 32 10 17 1011.6 1011.5 3.4
04/07:27am 10.5 6.8 10.2 98 0.2 NW 20 32 11 17 1011.5 1011.4 3.4
04/07:00am 10.4 6.7 10.1 98 0.2 WNW 20 28 11 15 1011.2 1011.1 3.4
04/06:30am 10.1 6.9 9.8 98 0.2 WNW 17 24 9 13 1011.0 1010.9 3.4
04/06:00am 10.0 5.8 9.7 98 0.2 WNW 22 30 12 16 1010.7 1010.6 3.4
04/05:30am 9.6 6.2 9.3 98 0.1 WNW 17 24 9 13 1010.1 1010.0 3.4
04/05:24am 9.6 6.2 9.3 98 0.1 WNW 17 24 9 13 1010.2 1010.1 3.4
04/05:00am 10.0 6.4 9.7 98 0.2 WNW 19 24 10 13 1010.0 1009.9 3.2
04/04:51am 10.1 6.9 9.8 98 0.2 WNW 17 24 9 13 1010.1 1010.0 3.0
04/04:39am 10.0 6.4 9.7 98 0.2 W 19 24 10 13 1010.0 1009.9 3.0
04/04:33am 10.0 6.4 9.7 98 0.2 WNW 19 24 10 13 1010.1 1010.0 2.8
04/04:30am 10.1 6.9 9.8 98 0.2 WNW 17 24 9 13 1010.1 1010.0 2.6
04/04:07am 10.1 6.3 9.8 98 0.2 W 20 30 11 16 1009.9 1009.8 2.4
04/04:00am 10.2 6.0 9.9 98 0.2 W 22 30 12 16 1010.0 1009.9 2.4
04/03:47am 10.4 6.7 10.1 98 0.2 W 20 26 11 14 1010.1 1010.0 2.4
04/03:30am 10.2 6.6 9.9 98 0.2 WNW 19 24 10 13 1010.0 1009.9 1.8
04/03:00am 10.4 5.2 10.1 98 0.2 W 28 37 15 20 1010.1 1010.0 1.8
04/02:30am 10.4 5.9 9.9 97 0.3 W 24 32 13 17 1010.3 1010.2 1.8
04/02:00am 10.1 5.5 9.6 97 0.3 W 24 33 13 18 1010.4 1010.3 1.8
04/01:48am 10.4 5.9 10.1 98 0.2 W 24 35 13 19 1010.5 1010.4 1.8
04/01:44am 10.2 5.7 9.9 98 0.2 W 24 33 13 18 1010.6 1010.5 1.8
04/01:30am 10.4 4.4 10.1 98 0.2 WSW 32 52 17 28 1010.7 1010.6 1.8
04/01:28am 10.6 5.4 10.3 98 0.2 W 28 52 15 28 1010.7 1010.6 1.8
04/01:27am 10.6 5.8 10.3 98 0.2 W 26 50 14 27 1010.7 1010.6 1.6
04/01:00am 10.7 6.9 9.9 95 0.4 W 20 30 11 16 1010.7 1010.6 1.4
04/12:30am 10.6 4.9 9.7 94 0.5 W 30 39 16 21 1010.7 1010.6 1.2
04/12:17am 10.9 5.2 9.7 92 0.6 W 30 50 16 27 1010.9 1010.8 1.2
04/12:16am 10.9 5.5 9.5 91 0.7 W 28 43 15 23 1011.0 1010.9 1.2
04/12:00am 11.3 7.9 9.0 86 1.2 W 17 22 9 12 1010.9 1010.8 1.0
 
Date/Time
EDT
Temp
°C
App
Temp
°C
Dew
Point
°C
Rel
Hum
%
Delta-T
°C
Wind Press
QNH
hPa
Press
MSL
hPa
Rain since
9am
mm
Dir  Spd
km/h
Gust
km/h
Spd
kts
Gust
kts
03/11:30pm 11.4 6.7 9.1 86 1.2 W 24 30 13 16 1010.8 1010.7 1.0
03/11:00pm 11.2 6.6 9.8 91 0.7 W 24 32 13 17 1010.8 1010.7 1.0

Other formats

Comma delimited format used in spreadsheet applications
http://www.bom.gov.au/fwo/IDV60801/IDV60801.94837.axf

JavaScript Object Notation format (JSON) in row-major order
http://www.bom.gov.au/fwo/IDV60801/IDV60801.94837.json

Data quality

Most of these data are generated automatically and are frequently updated. Quality checks on data are not normally performed. It is possible for incorrect values to appear. Refer to information at About Latest Weather Observations and please check the disclaimer before using these data.